createdAt,value
2018-09-28T00:00:00.413Z,7.33
2018-09-28T00:02:28.515Z,6.30
2018-09-28T00:04:56.590Z,9.33
2018-09-28T00:07:24.716Z,6.53
2018-09-28T00:09:52.894Z,6.97
2018-09-28T00:12:20.995Z,8.65
2018-09-28T00:14:49.095Z,10.50
2018-09-28T00:17:17.254Z,5.60
2018-09-28T00:19:45.354Z,5.97
2018-09-28T00:22:13.512Z,7.92
2018-09-28T00:24:41.746Z,4.28
2018-09-28T00:27:09.926Z,4.08
2018-09-28T00:29:38.118Z,4.05
2018-09-28T00:32:06.636Z,7.28
2018-09-28T00:34:34.819Z,7.30
2018-09-28T00:37:03.015Z,7.80
2018-09-28T00:39:31.439Z,5.58
2018-09-28T00:41:59.634Z,8.18
2018-09-28T00:44:27.839Z,4.60
2018-09-28T00:46:56.016Z,7.30
2018-09-28T00:49:24.236Z,6.28
2018-09-28T00:51:52.414Z,4.05
2018-09-28T00:54:20.626Z,3.10
2018-09-28T00:56:48.809Z,6.25
2018-09-28T00:59:17.034Z,4.22
2018-09-28T01:01:45.209Z,3.27
2018-09-28T01:04:13.417Z,3.87
2018-09-28T01:06:41.626Z,3.90
2018-09-28T01:09:12.144Z,6.00
2018-09-28T01:11:41.286Z,7.05
2018-09-28T01:14:09.729Z,4.30
2018-09-28T01:16:37.902Z,5.67
2018-09-28T01:19:06.362Z,3.70
2018-09-28T01:21:34.605Z,7.15
2018-09-28T01:24:02.789Z,6.78
2018-09-28T01:26:30.983Z,4.45
2018-09-28T01:28:59.083Z,6.58
2018-09-28T01:31:28.326Z,5.62
2018-09-28T01:33:56.554Z,7.33
2018-09-28T01:36:24.702Z,9.05
2018-09-28T01:38:52.823Z,5.17
2018-09-28T01:41:21.931Z,3.65
2018-09-28T01:43:50.136Z,5.65
2018-09-28T01:46:18.327Z,9.08
2018-09-28T01:48:46.438Z,5.25
2018-09-28T01:51:14.638Z,6.47
2018-09-28T01:53:42.833Z,5.50
2018-09-28T01:56:10.907Z,4.75
2018-09-28T01:58:39.010Z,4.62
2018-09-28T02:01:07.378Z,4.67
2018-09-28T02:03:35.567Z,6.42
2018-09-28T02:06:03.835Z,3.85
2018-09-28T02:08:32.023Z,3.90
2018-09-28T02:11:00.119Z,7.42
2018-09-28T02:13:28.207Z,4.72
2018-09-28T02:15:56.367Z,9.20
2018-09-28T02:18:24.402Z,4.92
2018-09-28T02:20:52.486Z,4.95
2018-09-28T02:23:20.601Z,4.53
2018-09-28T02:25:48.676Z,5.87
2018-09-28T02:28:16.806Z,5.10
2018-09-28T02:30:44.992Z,4.75
2018-09-28T02:33:13.096Z,6.65
2018-09-28T02:35:41.278Z,6.47
2018-09-28T02:38:09.366Z,6.85
2018-09-28T02:40:37.465Z,4.83
2018-09-28T02:43:05.570Z,6.75
2018-09-28T02:45:33.662Z,5.35
2018-09-28T02:48:01.772Z,6.17
2018-09-28T02:50:29.862Z,9.73
2018-09-28T02:52:57.982Z,4.85
2018-09-28T02:55:26.184Z,3.10
2018-09-28T02:57:54.349Z,5.92
2018-09-28T03:00:22.462Z,2.85
2018-09-28T03:02:50.559Z,3.65
2018-09-28T03:05:18.653Z,3.12
2018-09-28T03:07:46.750Z,3.25
2018-09-28T03:10:14.871Z,3.45
2018-09-28T03:12:43.046Z,6.78
2018-09-28T03:15:11.146Z,10.13
2018-09-28T03:17:39.247Z,6.67
2018-09-28T03:20:07.581Z,4.30
2018-09-28T03:22:36.279Z,5.12
2018-09-28T03:25:04.538Z,7.50
2018-09-28T03:27:32.637Z,4.00
2018-09-28T03:30:00.747Z,6.58
2018-09-28T03:32:28.844Z,6.90
2018-09-28T03:34:56.959Z,7.85
2018-09-28T03:37:25.034Z,6.95
2018-09-28T03:39:53.162Z,8.75
2018-09-28T03:42:21.328Z,6.03
2018-09-28T03:44:49.490Z,36.00
2018-09-28T03:47:17.654Z,9.85
2018-09-28T03:49:45.852Z,4.78
2018-09-28T03:52:13.924Z,5.33
2018-09-28T03:54:42.029Z,5.50
2018-09-28T03:57:10.134Z,5.30
2018-09-28T03:59:38.228Z,4.22
2018-09-28T04:02:06.310Z,5.53
2018-09-28T04:04:34.426Z,3.80
2018-09-28T04:07:02.519Z,5.05
2018-09-28T04:09:30.601Z,4.12
2018-09-28T04:11:58.717Z,5.35
2018-09-28T04:14:26.794Z,4.40
2018-09-28T04:16:54.933Z,5.00
2018-09-28T04:19:23.234Z,5.10
2018-09-28T04:21:56.977Z,5.42
2018-09-28T04:24:25.146Z,9.08
2018-09-28T04:26:53.242Z,5.12
2018-09-28T04:29:21.330Z,3.12
2018-09-28T04:31:49.434Z,5.05
2018-09-28T04:34:17.542Z,5.70
2018-09-28T04:36:45.749Z,5.92
2018-09-28T04:39:13.923Z,5.20
2018-09-28T04:41:42.063Z,4.15
2018-09-28T04:44:10.455Z,5.58
2018-09-28T04:46:38.758Z,4.83
2018-09-28T04:49:07.263Z,3.02
2018-09-28T04:51:36.359Z,6.50
2018-09-28T04:54:04.681Z,4.47
2018-09-28T04:56:32.872Z,6.67
2018-09-28T04:59:01.055Z,3.37
2018-09-28T05:01:29.166Z,4.17
2018-09-28T05:03:57.361Z,5.28
2018-09-28T05:06:25.470Z,7.87
2018-09-28T05:08:53.658Z,6.10
2018-09-28T05:11:22.795Z,7.50
2018-09-28T05:13:50.975Z,5.95
2018-09-28T05:16:19.094Z,5.35
2018-09-28T05:18:47.278Z,8.38
2018-09-28T05:21:16.411Z,8.23
2018-09-28T05:23:44.600Z,6.45
2018-09-28T05:26:12.919Z,6.62
2018-09-28T05:28:41.111Z,7.50
2018-09-28T05:31:09.455Z,8.03
2018-09-28T05:33:37.597Z,8.33
2018-09-28T05:36:05.817Z,8.35
2018-09-28T05:38:33.990Z,7.33
2018-09-28T05:41:02.103Z,10.13
2018-09-28T05:43:30.190Z,8.88
2018-09-28T05:45:58.306Z,5.95
2018-09-28T05:48:26.488Z,9.45
2018-09-28T05:50:54.591Z,7.75
2018-09-28T05:53:22.791Z,6.65
2018-09-28T05:55:50.873Z,9.30
2018-09-28T05:58:24.645Z,9.05
2018-09-28T06:00:58.313Z,7.50
2018-09-28T06:03:26.438Z,8.70
2018-09-28T06:05:57.419Z,10.15
2018-09-28T06:08:25.615Z,9.98
2018-09-28T06:10:53.804Z,7.22
2018-09-28T06:13:22.348Z,9.08
2018-09-28T06:15:50.733Z,7.30
2018-09-28T06:18:18.905Z,8.55
2018-09-28T06:20:47.356Z,4.80
2018-09-28T06:23:15.628Z,6.53
2018-09-28T06:25:43.976Z,7.60
2018-09-28T06:28:12.178Z,7.03
2018-09-28T06:30:40.451Z,7.97
2018-09-28T06:33:08.614Z,5.53
2018-09-28T06:35:36.739Z,5.90
2018-09-28T06:38:04.805Z,8.23
2018-09-28T06:40:32.894Z,9.73
2018-09-28T06:43:01.014Z,6.58
2018-09-28T06:45:29.102Z,7.22
2018-09-28T06:47:57.311Z,11.73
2018-09-28T06:50:25.390Z,8.50
2018-09-28T06:52:53.644Z,12.95
2018-09-28T06:55:21.789Z,9.28
2018-09-28T06:57:49.870Z,10.30
2018-09-28T07:00:18.060Z,10.53
2018-09-28T07:02:46.114Z,11.15
2018-09-28T07:05:14.293Z,6.42
2018-09-28T07:07:42.390Z,7.65
2018-09-28T07:10:10.510Z,9.65
2018-09-28T07:12:38.698Z,13.55
2018-09-28T07:15:06.896Z,11.30
2018-09-28T07:17:35.105Z,8.65
2018-09-28T07:20:03.304Z,11.65
2018-09-28T07:22:31.439Z,11.22
2018-09-28T07:24:59.665Z,7.97
2018-09-28T07:27:27.799Z,7.45
2018-09-28T07:29:56.096Z,8.73
2018-09-28T07:32:24.186Z,9.50
2018-09-28T07:34:52.297Z,12.25
2018-09-28T07:37:20.603Z,17.90
2018-09-28T07:39:48.791Z,11.18
2018-09-28T07:42:17.019Z,11.05
2018-09-28T07:44:45.021Z,12.63
2018-09-28T07:47:13.194Z,12.28
2018-09-28T07:49:41.438Z,11.80
2018-09-28T07:52:09.583Z,13.38
2018-09-28T07:54:37.688Z,16.60
2018-09-28T07:57:05.902Z,16.55
2018-09-28T07:59:34.089Z,17.20
2018-09-28T08:02:02.286Z,20.37
2018-09-28T08:04:30.503Z,19.95
2018-09-28T08:06:58.625Z,24.55
2018-09-28T08:09:26.814Z,22.45
2018-09-28T08:11:54.982Z,17.23
2018-09-28T08:14:23.198Z,17.73
2018-09-28T08:16:51.365Z,16.23
2018-09-28T08:19:19.486Z,16.67
2018-09-28T08:21:47.667Z,19.40
2018-09-28T08:24:15.810Z,22.93
2018-09-28T08:26:43.998Z,28.83
2018-09-28T08:29:12.167Z,22.62
2018-09-28T08:31:40.290Z,31.37
2018-09-28T08:34:08.465Z,20.40
2018-09-28T08:36:36.662Z,22.58
2018-09-28T08:39:06.794Z,23.20
2018-09-28T08:41:34.905Z,21.73
2018-09-28T08:44:03.007Z,21.15
2018-09-28T08:46:31.109Z,21.93
2018-09-28T08:48:59.306Z,23.83
2018-09-28T08:51:27.506Z,21.75
2018-09-28T08:53:55.639Z,20.97
2018-09-28T08:56:23.794Z,22.00
2018-09-28T08:58:51.898Z,26.23
2018-09-28T09:01:19.997Z,23.15
2018-09-28T09:03:48.112Z,22.02
2018-09-28T09:06:16.283Z,20.35
2018-09-28T09:08:44.381Z,21.85
2018-09-28T09:11:13.070Z,21.52
2018-09-28T09:13:41.149Z,19.73
2018-09-28T09:16:09.289Z,23.95
2018-09-28T09:18:37.518Z,29.02
2018-09-28T09:21:05.726Z,23.10
2018-09-28T09:23:33.929Z,23.67
2018-09-28T09:26:02.102Z,28.52
2018-09-28T09:28:30.524Z,32.05
2018-09-28T09:30:58.714Z,29.40
2018-09-28T09:33:26.929Z,31.40
2018-09-28T09:35:55.106Z,26.00
2018-09-28T09:38:23.302Z,28.77
2018-09-28T09:40:51.513Z,24.92
2018-09-28T09:43:19.826Z,21.35
2018-09-28T09:45:48.007Z,24.47
2018-09-28T09:48:16.214Z,20.35
2018-09-28T09:50:44.454Z,22.90
2018-09-28T09:53:12.631Z,22.87
2018-09-28T09:55:40.872Z,21.60
2018-09-28T09:58:09.046Z,26.33
2018-09-28T10:00:42.473Z,23.62
2018-09-28T10:03:16.042Z,21.75
2018-09-28T10:05:44.149Z,25.95
2018-09-28T10:08:12.378Z,21.57
2018-09-28T10:10:40.554Z,28.25
2018-09-28T10:13:08.754Z,19.92
2018-09-28T10:15:36.961Z,21.05
2018-09-28T10:18:05.142Z,22.00
2018-09-28T10:20:33.335Z,23.00
2018-09-28T10:23:01.476Z,19.70
2018-09-28T10:25:29.641Z,20.32
2018-09-28T10:27:58.186Z,18.80
2018-09-28T10:30:26.346Z,17.42
2018-09-28T10:32:54.538Z,13.75
2018-09-28T10:35:22.654Z,13.58
2018-09-28T10:37:50.838Z,17.90
2018-09-28T10:40:18.946Z,18.42
2018-09-28T10:42:47.031Z,17.77
2018-09-28T10:45:15.199Z,14.45
2018-09-28T10:47:43.340Z,17.55
2018-09-28T10:50:11.574Z,14.43
2018-09-28T10:52:39.701Z,17.80
2018-09-28T10:55:07.826Z,19.87
2018-09-28T10:57:36.023Z,11.70
2018-09-28T11:00:04.290Z,15.15
2018-09-28T11:02:32.383Z,15.48
2018-09-28T11:05:00.538Z,19.15
2018-09-28T11:07:28.625Z,15.98
2018-09-28T11:09:56.722Z,18.92
2018-09-28T11:12:24.818Z,19.20
2018-09-28T11:14:52.890Z,18.37
2018-09-28T11:17:20.990Z,14.13
2018-09-28T11:19:49.080Z,14.47
2018-09-28T11:22:17.195Z,14.85
2018-09-28T11:24:45.281Z,14.47
2018-09-28T11:27:13.393Z,12.07
2018-09-28T11:29:41.446Z,13.15
2018-09-28T11:32:09.725Z,18.98
2018-09-28T11:34:37.798Z,18.10
2018-09-28T11:37:05.890Z,21.93
2018-09-28T11:39:33.964Z,19.80
2018-09-28T11:42:02.048Z,21.55
2018-09-28T11:44:30.131Z,16.00
2018-09-28T11:46:58.210Z,19.20
2018-09-28T11:49:26.331Z,18.95
2018-09-28T11:51:54.432Z,20.32
2018-09-28T11:54:22.534Z,21.87
2018-09-28T11:56:50.658Z,24.57
2018-09-28T11:59:18.746Z,31.02
2018-09-28T12:01:46.841Z,25.88
2018-09-28T12:04:14.926Z,25.82
2018-09-28T12:06:43.203Z,18.40
2018-09-28T12:09:12.876Z,22.25
2018-09-28T12:11:42.654Z,18.55
2018-09-28T12:14:10.731Z,14.28
2018-09-28T12:16:38.839Z,15.65
2018-09-28T12:19:06.944Z,16.02
2018-09-28T12:21:36.059Z,12.15
2018-09-28T12:24:04.142Z,12.28
2018-09-28T12:26:32.218Z,12.60
2018-09-28T12:29:00.767Z,8.88
2018-09-28T12:31:29.846Z,9.10
2018-09-28T12:33:57.942Z,5.10
2018-09-28T12:36:26.027Z,5.80
2018-09-28T12:38:54.101Z,5.95
2018-09-28T12:41:23.272Z,4.85
2018-09-28T12:43:51.354Z,6.20
2018-09-28T12:46:19.431Z,10.23
2018-09-28T12:48:47.586Z,7.60
2018-09-28T12:51:16.693Z,6.55
2018-09-28T12:53:44.856Z,4.35
2018-09-28T12:56:12.872Z,5.97
2018-09-28T12:58:40.959Z,5.00
2018-09-28T13:01:09.253Z,4.62
2018-09-28T13:03:37.126Z,5.87
2018-09-28T13:06:05.211Z,3.58
2018-09-28T13:08:38.576Z,3.62
2018-09-28T13:11:06.831Z,4.03
2018-09-28T13:13:34.993Z,5.08
2018-09-28T13:16:03.210Z,3.22
2018-09-28T13:18:31.460Z,3.27
2018-09-28T13:21:00.401Z,3.98
2018-09-28T13:23:28.523Z,5.12
2018-09-28T13:25:56.710Z,11.80
2018-09-28T13:28:24.898Z,5.83
2018-09-28T13:30:53.011Z,4.42
2018-09-28T13:33:21.105Z,6.60
2018-09-28T13:35:49.177Z,9.05
2018-09-28T13:38:17.409Z,6.70
2018-09-28T13:40:45.485Z,9.15
2018-09-28T13:43:13.827Z,9.63
2018-09-28T13:45:41.985Z,6.62
2018-09-28T13:48:10.146Z,13.62
2018-09-28T13:50:38.362Z,14.58
2018-09-28T13:53:06.511Z,12.75
2018-09-28T13:55:34.710Z,13.40
2018-09-28T13:58:02.870Z,9.15
2018-09-28T14:00:31.060Z,10.50
2018-09-28T14:02:59.183Z,12.58
2018-09-28T14:05:27.290Z,12.53
2018-09-28T14:07:55.486Z,13.00
2018-09-28T14:10:23.805Z,10.08
2018-09-28T14:12:51.772Z,16.17
2018-09-28T14:15:19.886Z,14.28
2018-09-28T14:17:48.081Z,10.32
2018-09-28T14:20:16.229Z,19.75
2018-09-28T14:22:44.308Z,13.85
2018-09-28T14:25:12.511Z,11.43
2018-09-28T14:27:40.687Z,13.18
2018-09-28T14:30:08.896Z,9.38
2018-09-28T14:32:37.141Z,14.33
2018-09-28T14:35:05.398Z,6.53
2018-09-28T14:37:33.608Z,18.40
2018-09-28T14:40:01.782Z,14.40
2018-09-28T14:42:30.034Z,16.62
2018-09-28T14:44:58.182Z,23.10
2018-09-28T14:47:26.361Z,11.43
2018-09-28T14:49:54.482Z,9.05
2018-09-28T14:52:22.674Z,10.65
2018-09-28T14:54:50.850Z,9.33
2018-09-28T14:57:18.969Z,9.33
2018-09-28T14:59:47.078Z,9.73
2018-09-28T15:02:15.267Z,7.92
2018-09-28T15:04:43.437Z,7.25
2018-09-28T15:07:11.587Z,8.05
2018-09-28T15:09:39.815Z,6.95
2018-09-28T15:12:08.011Z,8.23
2018-09-28T15:14:36.179Z,8.70
2018-09-28T15:17:04.350Z,9.68
2018-09-28T15:19:32.483Z,7.35
2018-09-28T15:22:00.639Z,7.08
2018-09-28T15:24:28.750Z,4.40
2018-09-28T15:26:56.843Z,5.80
2018-09-28T15:29:24.950Z,3.95
2018-09-28T15:31:53.038Z,3.77
2018-09-28T15:34:21.133Z,3.80
2018-09-28T15:36:49.234Z,7.25
2018-09-28T15:39:17.331Z,6.35
2018-09-28T15:41:45.429Z,8.03
2018-09-28T15:44:13.506Z,5.42
2018-09-28T15:46:41.622Z,5.90
2018-09-28T15:49:09.719Z,11.10
2018-09-28T15:51:37.833Z,4.75
2018-09-28T15:54:06.011Z,5.80
2018-09-28T15:56:34.162Z,10.00
2018-09-28T15:59:02.310Z,7.25
2018-09-28T16:01:30.418Z,6.85
2018-09-28T16:03:58.594Z,7.37
2018-09-28T16:06:26.770Z,6.50
2018-09-28T16:08:55.276Z,6.87
2018-09-28T16:11:23.367Z,9.80
2018-09-28T16:13:51.458Z,6.80
2018-09-28T16:16:19.690Z,5.97
2018-09-28T16:18:48.046Z,9.10
2018-09-28T16:21:17.131Z,10.50
2018-09-28T16:23:45.330Z,8.15
2018-09-28T16:26:13.536Z,9.95
2018-09-28T16:28:41.787Z,8.50
2018-09-28T16:31:10.117Z,9.23
2018-09-28T16:33:38.268Z,11.65
2018-09-28T16:36:06.468Z,11.65
2018-09-28T16:38:34.659Z,8.60
2018-09-28T16:41:02.842Z,8.63
2018-09-28T16:43:31.034Z,8.25
2018-09-28T16:45:59.229Z,9.08
2018-09-28T16:48:27.440Z,6.80
2018-09-28T16:50:55.642Z,10.50
2018-09-28T16:53:23.837Z,8.70
2018-09-28T16:55:52.058Z,8.18
2018-09-28T16:58:20.297Z,10.65
2018-09-28T17:00:48.437Z,7.50
2018-09-28T17:03:16.654Z,10.55
2018-09-28T17:05:44.846Z,8.38
2018-09-28T17:08:13.250Z,7.25
2018-09-28T17:10:41.458Z,9.80
2018-09-28T17:13:09.625Z,8.80
2018-09-28T17:15:37.754Z,6.72
2018-09-28T17:18:06.210Z,9.23
2018-09-28T17:20:34.396Z,9.40
2018-09-28T17:23:02.557Z,9.38
2018-09-28T17:25:30.752Z,9.30
2018-09-28T17:27:58.959Z,8.13
2018-09-28T17:30:27.066Z,9.65
2018-09-28T17:32:55.245Z,10.08
2018-09-28T17:35:23.462Z,5.55
2018-09-28T17:37:51.630Z,4.65
2018-09-28T17:40:19.737Z,10.55
2018-09-28T17:42:47.858Z,10.93
2018-09-28T17:45:16.045Z,14.98
2018-09-28T17:47:45.173Z,10.90
2018-09-28T17:50:13.383Z,8.28
2018-09-28T17:52:41.466Z,10.75
2018-09-28T17:55:09.567Z,13.72
2018-09-28T17:57:37.688Z,10.05
2018-09-28T18:00:05.880Z,9.73
2018-09-28T18:02:33.978Z,7.65
2018-09-28T18:05:02.078Z,10.13
2018-09-28T18:07:30.186Z,11.65
2018-09-28T18:09:58.261Z,9.40
2018-09-28T18:12:26.362Z,7.45
2018-09-28T18:14:54.445Z,9.60
2018-09-28T18:17:22.555Z,15.98
2018-09-28T18:19:50.638Z,15.53
2018-09-28T18:22:18.799Z,13.38
2018-09-28T18:24:46.853Z,10.65
2018-09-28T18:27:15.039Z,13.20
2018-09-28T18:29:43.075Z,10.82
2018-09-28T18:32:11.166Z,14.63
2018-09-28T18:34:39.287Z,13.70
2018-09-28T18:37:07.677Z,11.38
2018-09-28T18:39:35.746Z,9.88
2018-09-28T18:42:03.916Z,10.08
2018-09-28T18:44:31.958Z,9.55
2018-09-28T18:47:00.168Z,12.55
2018-09-28T18:49:28.258Z,10.58
2018-09-28T18:51:56.352Z,12.23
2018-09-28T18:54:24.442Z,14.95
2018-09-28T18:56:52.538Z,11.25
2018-09-28T18:59:20.630Z,10.98
2018-09-28T19:01:49.018Z,13.50
2018-09-28T19:04:17.161Z,15.15
2018-09-28T19:06:45.276Z,9.00
2018-09-28T19:09:13.517Z,11.03
2018-09-28T19:11:42.122Z,9.83
2018-09-28T19:14:10.254Z,10.43
2018-09-28T19:16:38.357Z,13.70
2018-09-28T19:19:06.438Z,14.38
2018-09-28T19:21:34.593Z,11.45
2018-09-28T19:24:02.630Z,19.35
2018-09-28T19:26:30.722Z,10.18
2018-09-28T19:28:58.814Z,13.75
2018-09-28T19:31:26.932Z,10.55
2018-09-28T19:33:55.030Z,12.30
2018-09-28T19:36:23.127Z,13.00
2018-09-28T19:38:51.210Z,9.88
2018-09-28T19:41:20.395Z,14.83
2018-09-28T19:43:48.499Z,10.48
2018-09-28T19:46:16.610Z,13.38
2018-09-28T19:48:44.702Z,13.50
2018-09-28T19:51:12.805Z,14.00
2018-09-28T19:53:40.886Z,14.90
2018-09-28T19:56:09.086Z,19.07
2018-09-28T19:58:37.186Z,13.88
2018-09-28T20:01:05.273Z,10.38
2018-09-28T20:03:33.369Z,10.75
2018-09-28T20:06:01.613Z,9.88
2018-09-28T20:08:29.690Z,10.95
2018-09-28T20:10:57.858Z,14.55
2018-09-28T20:13:26.058Z,13.30
2018-09-28T20:15:54.122Z,15.95
2018-09-28T20:18:22.231Z,11.20
2018-09-28T20:20:50.350Z,15.32
2018-09-28T20:23:18.494Z,10.13
2018-09-28T20:25:46.586Z,14.13
2018-09-28T20:28:14.748Z,15.00
2018-09-28T20:30:42.821Z,11.63
2018-09-28T20:33:10.918Z,12.88
2018-09-28T20:35:42.314Z,10.25
2018-09-28T20:38:11.208Z,9.63
2018-09-28T20:40:39.270Z,12.82
2018-09-28T20:43:07.369Z,14.47
2018-09-28T20:45:35.541Z,15.35
2018-09-28T20:48:03.631Z,15.00
2018-09-28T20:50:31.733Z,9.35
2018-09-28T20:52:59.838Z,9.58
2018-09-28T20:55:28.004Z,11.88
2018-09-28T20:57:56.034Z,10.88
2018-09-28T21:00:24.198Z,6.20
2018-09-28T21:02:52.278Z,9.23
2018-09-28T21:05:20.363Z,10.23
2018-09-28T21:07:48.458Z,10.95
2018-09-28T21:10:16.542Z,17.17
2018-09-28T21:12:44.617Z,12.40
2018-09-28T21:15:12.726Z,12.07
2018-09-28T21:17:40.895Z,10.88
2018-09-28T21:20:08.990Z,11.83
2018-09-28T21:22:37.106Z,9.68
2018-09-28T21:25:05.313Z,11.83
2018-09-28T21:27:33.510Z,16.15
2018-09-28T21:30:01.818Z,13.62
2018-09-28T21:32:29.977Z,7.37
2018-09-28T21:34:58.078Z,12.00
2018-09-28T21:37:26.183Z,10.20
2018-09-28T21:39:54.301Z,12.70
2018-09-28T21:42:22.475Z,11.00
2018-09-28T21:44:50.562Z,11.75
2018-09-28T21:47:18.677Z,18.73
2018-09-28T21:49:46.909Z,6.22
2018-09-28T21:52:15.072Z,13.53
2018-09-28T21:54:43.374Z,17.20
2018-09-28T21:57:11.599Z,11.70
2018-09-28T21:59:40.217Z,13.95
2018-09-28T22:02:08.382Z,14.60
2018-09-28T22:04:36.791Z,8.10
2018-09-28T22:07:04.884Z,17.45
2018-09-28T22:09:33.115Z,7.95
2018-09-28T22:12:01.277Z,8.45
2018-09-28T22:14:29.350Z,13.53
2018-09-28T22:16:57.474Z,11.03
2018-09-28T22:19:26.619Z,10.50
2018-09-28T22:21:54.790Z,11.65
2018-09-28T22:24:22.926Z,11.22
2018-09-28T22:26:51.078Z,22.22
2018-09-28T22:29:19.198Z,12.80
2018-09-28T22:31:47.285Z,17.55
2018-09-28T22:34:15.415Z,11.85
2018-09-28T22:36:43.581Z,7.37
2018-09-28T22:39:12.442Z,13.05
2018-09-28T22:41:41.618Z,7.08
2018-09-28T22:44:10.221Z,9.20
2018-09-28T22:46:38.666Z,12.35
2018-09-28T22:49:06.846Z,10.38
2018-09-28T22:51:35.946Z,16.25
2018-09-28T22:54:04.067Z,14.83
2018-09-28T22:56:32.242Z,9.65
2018-09-28T22:59:00.357Z,11.20
2018-09-28T23:01:28.529Z,4.78
2018-09-28T23:03:56.645Z,11.90
2018-09-28T23:06:24.747Z,8.85
2018-09-28T23:08:52.830Z,16.40
2018-09-28T23:11:20.938Z,13.13
2018-09-28T23:13:49.023Z,6.22
2018-09-28T23:16:17.138Z,16.02
2018-09-28T23:18:45.218Z,5.70
2018-09-28T23:21:14.438Z,7.75
2018-09-28T23:23:42.536Z,7.00
2018-09-28T23:26:10.646Z,8.70
2018-09-28T23:28:38.813Z,10.82
2018-09-28T23:31:06.949Z,14.53
2018-09-28T23:33:35.050Z,9.30
2018-09-28T23:36:03.255Z,14.15
2018-09-28T23:38:31.452Z,8.83
2018-09-28T23:40:59.656Z,10.08
2018-09-28T23:43:27.838Z,9.95
2018-09-28T23:45:55.954Z,7.78
2018-09-28T23:48:24.138Z,10.85
2018-09-28T23:50:52.245Z,9.58
2018-09-28T23:53:20.439Z,6.17
2018-09-28T23:55:48.545Z,7.78
2018-09-28T23:58:16.768Z,14.18
